createdAt,value
2022-09-24T00:01:16.636Z,6.13
2022-09-24T00:03:50.084Z,4.50
2022-09-24T00:06:19.188Z,5.83
2022-09-24T00:08:47.155Z,7.07
2022-09-24T00:11:14.017Z,6.47
2022-09-24T00:13:41.100Z,5.03
2022-09-24T00:16:12.914Z,6.37
2022-09-24T00:18:40.211Z,6.13
2022-09-24T00:21:16.041Z,4.93
2022-09-24T00:23:43.160Z,5.73
2022-09-24T00:26:30.440Z,4.43
2022-09-24T00:28:58.205Z,6.00
2022-09-24T00:31:25.229Z,8.37
2022-09-24T00:33:52.378Z,6.63
2022-09-24T00:36:20.775Z,5.03
2022-09-24T00:38:52.575Z,5.03
2022-09-24T00:41:21.106Z,7.23
2022-09-24T00:43:49.003Z,7.00
2022-09-24T00:46:18.087Z,4.47
2022-09-24T00:48:47.342Z,6.00
2022-09-24T00:51:16.998Z,5.10
2022-09-24T00:53:46.549Z,4.30
2022-09-24T00:56:15.507Z,6.40
2022-09-24T00:58:46.656Z,7.80
2022-09-24T01:01:14.086Z,5.50
2022-09-24T01:03:42.295Z,4.00
2022-09-24T01:06:09.420Z,5.03
2022-09-24T01:08:36.134Z,4.30
2022-09-24T01:11:24.554Z,5.87
2022-09-24T01:14:17.919Z,4.80
2022-09-24T01:16:59.123Z,6.90
2022-09-24T01:20:02.803Z,6.67
2022-09-24T01:22:41.220Z,6.97
2022-09-24T01:25:19.054Z,6.87
2022-09-24T01:27:59.002Z,6.33
2022-09-24T01:30:25.700Z,4.97
2022-09-24T01:32:56.221Z,4.63
2022-09-24T01:35:33.019Z,8.10
2022-09-24T01:38:06.766Z,8.40
2022-09-24T01:40:34.645Z,5.00
2022-09-24T01:43:05.046Z,4.67
2022-09-24T01:45:32.385Z,4.40
2022-09-24T01:48:02.868Z,4.80
2022-09-24T01:50:34.304Z,5.80
2022-09-24T01:53:16.457Z,5.27
2022-09-24T01:55:49.599Z,4.03
2022-09-24T01:58:23.652Z,5.00
2022-09-24T02:00:57.719Z,4.43
2022-09-24T02:03:29.759Z,6.20
2022-09-24T02:06:10.299Z,4.67
2022-09-24T02:08:41.935Z,4.37
2022-09-24T02:11:14.508Z,4.43
2022-09-24T02:14:03.195Z,5.50
2022-09-24T02:16:36.583Z,5.87
2022-09-24T02:19:07.572Z,6.80
2022-09-24T02:21:36.962Z,4.80
2022-09-24T02:24:08.320Z,6.67
2022-09-24T02:26:34.858Z,4.67
2022-09-24T02:29:01.602Z,4.90
2022-09-24T02:31:34.725Z,5.20
2022-09-24T02:34:23.374Z,4.33
2022-09-24T02:36:53.321Z,4.70
2022-09-24T02:39:20.290Z,4.20
2022-09-24T02:41:49.520Z,4.33
2022-09-24T02:44:16.743Z,4.27
2022-09-24T02:46:44.721Z,4.23
2022-09-24T02:49:11.618Z,4.10
2022-09-24T02:51:38.611Z,4.17
2022-09-24T02:54:05.813Z,5.67
2022-09-24T02:56:32.442Z,4.87
2022-09-24T02:58:59.302Z,5.57
2022-09-24T03:01:25.948Z,5.97
2022-09-24T03:03:52.469Z,4.73
2022-09-24T03:06:18.888Z,6.00
2022-09-24T03:08:45.524Z,4.30
2022-09-24T03:11:17.706Z,6.40
2022-09-24T03:13:46.013Z,5.80
2022-09-24T03:16:12.388Z,7.43
2022-09-24T03:18:38.847Z,6.50
2022-09-24T03:21:08.557Z,3.67
2022-09-24T03:23:35.653Z,4.83
2022-09-24T03:26:02.935Z,5.07
2022-09-24T03:28:29.650Z,3.80
2022-09-24T03:31:02.048Z,4.70
2022-09-24T03:33:35.026Z,7.07
2022-09-24T03:36:07.354Z,4.20
2022-09-24T03:38:35.203Z,6.33
2022-09-24T03:41:02.922Z,4.97
2022-09-24T03:43:29.572Z,4.13
2022-09-24T03:45:55.961Z,3.73
2022-09-24T03:48:23.831Z,4.97
2022-09-24T03:50:50.698Z,5.43
2022-09-24T03:53:18.280Z,4.83
2022-09-24T03:55:47.964Z,5.83
2022-09-24T03:58:15.849Z,6.33
2022-09-24T04:00:42.664Z,4.30
2022-09-24T04:03:10.166Z,5.27
2022-09-24T04:05:37.279Z,4.03
2022-09-24T04:08:06.098Z,4.67
2022-09-24T04:10:32.695Z,8.60
2022-09-24T04:12:59.174Z,5.13
2022-09-24T04:15:25.600Z,3.97
2022-09-24T04:17:56.927Z,5.17
2022-09-24T04:20:26.155Z,3.80
2022-09-24T04:22:57.414Z,6.03
2022-09-24T04:25:24.774Z,5.80
2022-09-24T04:28:00.387Z,4.47
2022-09-24T04:30:28.090Z,3.80
2022-09-24T04:32:54.627Z,5.20
2022-09-24T04:35:24.199Z,4.53
2022-09-24T04:37:50.725Z,4.67
2022-09-24T04:40:18.059Z,4.87
2022-09-24T04:42:46.205Z,6.70
2022-09-24T04:45:19.955Z,5.90
2022-09-24T04:47:52.409Z,4.10
2022-09-24T04:50:20.097Z,3.87
2022-09-24T04:52:52.381Z,4.20
2022-09-24T04:55:20.599Z,4.67
2022-09-24T04:57:47.660Z,5.50
2022-09-24T05:00:17.617Z,3.93
2022-09-24T05:02:45.223Z,4.23
2022-09-24T05:05:12.537Z,4.37
2022-09-24T05:07:39.886Z,4.97
2022-09-24T05:10:07.004Z,3.93
2022-09-24T05:12:36.252Z,3.93
2022-09-24T05:15:03.768Z,4.77
2022-09-24T05:17:30.202Z,3.50
2022-09-24T05:19:57.829Z,5.10
2022-09-24T05:22:25.906Z,5.23
2022-09-24T05:24:52.514Z,4.87
2022-09-24T05:27:19.582Z,4.00
2022-09-24T05:29:46.194Z,5.03
2022-09-24T05:32:15.260Z,4.87
2022-09-24T05:34:45.557Z,4.60
2022-09-24T05:37:13.904Z,4.10
2022-09-24T05:39:40.691Z,5.60
2022-09-24T05:42:09.972Z,4.83
2022-09-24T05:44:37.238Z,5.90
2022-09-24T05:47:03.765Z,4.30
2022-09-24T05:49:30.204Z,5.13
2022-09-24T05:51:57.681Z,5.07
2022-09-24T05:54:24.048Z,5.10
2022-09-24T05:56:50.510Z,6.60
2022-09-24T05:59:16.933Z,4.93
2022-09-24T06:01:43.350Z,5.10
2022-09-24T06:04:11.481Z,5.97
2022-09-24T06:06:37.940Z,4.30
2022-09-24T06:09:04.510Z,3.80
2022-09-24T06:11:39.693Z,4.50
2022-09-24T06:14:09.276Z,4.40
2022-09-24T06:16:36.003Z,4.50
2022-09-24T06:19:02.633Z,3.90
2022-09-24T06:21:29.112Z,4.10
2022-09-24T06:23:55.592Z,5.60
2022-09-24T06:26:22.214Z,4.47
2022-09-24T06:28:48.650Z,5.17
2022-09-24T06:31:15.480Z,5.23
2022-09-24T06:33:42.484Z,5.27
2022-09-24T06:36:09.442Z,7.20
2022-09-24T06:38:36.468Z,7.13
2022-09-24T06:41:07.205Z,5.57
2022-09-24T06:43:34.507Z,6.30
2022-09-24T06:46:02.483Z,6.53
2022-09-24T06:48:29.826Z,5.50
2022-09-24T06:50:56.489Z,5.23
2022-09-24T06:53:23.690Z,5.77
2022-09-24T06:55:50.346Z,5.20
2022-09-24T06:58:20.597Z,5.53
2022-09-24T07:00:58.704Z,4.57
2022-09-24T07:03:27.700Z,4.20
2022-09-24T07:05:54.511Z,4.50
2022-09-24T07:08:21.543Z,3.93
2022-09-24T07:10:49.217Z,4.70
2022-09-24T07:13:16.341Z,4.07
2022-09-24T07:15:43.946Z,4.53
2022-09-24T07:18:11.938Z,5.03
2022-09-24T07:20:38.749Z,5.80
2022-09-24T07:23:06.734Z,4.13
2022-09-24T07:25:33.641Z,5.27
2022-09-24T07:28:05.677Z,5.73
2022-09-24T07:30:33.738Z,6.43
2022-09-24T07:33:00.360Z,5.10
2022-09-24T07:35:28.338Z,4.97
2022-09-24T07:38:01.633Z,8.07
2022-09-24T07:40:29.544Z,7.00
2022-09-24T07:42:56.910Z,6.30
2022-09-24T07:45:24.314Z,6.33
2022-09-24T07:48:01.264Z,4.57
2022-09-24T07:50:29.747Z,7.63
2022-09-24T07:52:56.944Z,5.90
2022-09-24T07:55:24.438Z,5.23
2022-09-24T07:57:53.014Z,5.10
2022-09-24T08:00:21.086Z,5.97
2022-09-24T08:02:48.597Z,5.27
2022-09-24T08:05:16.551Z,5.27
2022-09-24T08:07:44.188Z,8.27
2022-09-24T08:10:10.908Z,5.50
2022-09-24T08:12:37.426Z,5.50
2022-09-24T08:15:04.248Z,8.97
2022-09-24T08:17:31.119Z,5.70
2022-09-24T08:19:57.530Z,6.47
2022-09-24T08:22:24.945Z,6.17
2022-09-24T08:24:51.514Z,7.57
2022-09-24T08:27:19.290Z,6.07
2022-09-24T08:29:46.344Z,6.63
2022-09-24T08:32:13.274Z,5.87
2022-09-24T08:34:40.607Z,5.90
2022-09-24T08:37:08.024Z,5.67
2022-09-24T08:39:35.106Z,6.17
2022-09-24T08:42:05.489Z,5.80
2022-09-24T08:45:03.422Z,6.60
2022-09-24T08:47:48.378Z,5.83
2022-09-24T08:50:17.379Z,5.40
2022-09-24T08:52:50.450Z,4.73
2022-09-24T08:55:34.131Z,6.03
2022-09-24T08:58:16.577Z,4.70
2022-09-24T09:00:57.647Z,4.70
2022-09-24T09:03:33.619Z,4.70
2022-09-24T09:06:10.504Z,5.40
2022-09-24T09:09:06.247Z,5.30
2022-09-24T09:11:36.647Z,5.47
2022-09-24T09:14:29.179Z,4.30
2022-09-24T09:17:06.683Z,4.17
2022-09-24T09:19:34.518Z,3.73
2022-09-24T09:22:17.371Z,5.70
2022-09-24T09:24:49.586Z,4.07
2022-09-24T09:27:18.047Z,5.27
2022-09-24T09:29:48.598Z,3.93
2022-09-24T09:32:36.446Z,3.70
2022-09-24T09:35:19.382Z,7.07
2022-09-24T09:38:17.132Z,4.60
2022-09-24T09:40:46.786Z,3.93
2022-09-24T09:43:14.272Z,6.13
2022-09-24T09:45:52.816Z,9.60
2022-09-24T09:48:22.341Z,3.40
2022-09-24T09:50:51.856Z,4.27
2022-09-24T09:53:23.369Z,3.37
2022-09-24T09:56:02.955Z,4.05
2022-09-24T09:58:34.553Z,3.30
2022-09-24T10:01:06.119Z,3.60
2022-09-24T10:03:47.073Z,3.78
2022-09-24T10:06:22.534Z,3.75
2022-09-24T10:08:49.170Z,3.50
2022-09-24T10:11:17.730Z,6.72
2022-09-24T10:13:45.554Z,22.63
2022-09-24T10:16:15.585Z,5.53
2022-09-24T10:18:51.245Z,5.75
2022-09-24T10:21:31.334Z,6.10
2022-09-24T10:24:04.545Z,7.30
2022-09-24T10:26:44.020Z,5.25
2022-09-24T10:29:34.639Z,4.07
2022-09-24T10:32:03.100Z,4.18
2022-09-24T10:34:29.746Z,7.22
2022-09-24T10:37:10.167Z,6.07
2022-09-24T10:39:37.498Z,5.95
2022-09-24T10:42:05.261Z,6.15
2022-09-24T10:44:37.171Z,4.75
2022-09-24T10:47:25.544Z,5.88
2022-09-24T10:50:07.637Z,5.30
2022-09-24T10:52:44.524Z,6.90
2022-09-24T10:55:37.101Z,4.82
2022-09-24T10:58:25.167Z,3.90
2022-09-24T11:01:05.020Z,7.40
2022-09-24T11:03:42.746Z,4.32
2022-09-24T11:06:39.816Z,5.40
2022-09-24T11:09:21.258Z,4.55
2022-09-24T11:17:00.097Z,4.22
2022-09-24T11:19:50.609Z,4.13
2022-09-24T11:22:44.982Z,5.88
2022-09-24T11:25:30.085Z,4.72
2022-09-24T11:27:59.415Z,4.18
2022-09-24T11:30:39.379Z,7.53
2022-09-24T11:33:37.423Z,4.75
2022-09-24T11:36:22.102Z,4.65
2022-09-24T11:39:15.161Z,5.90
2022-09-24T11:41:50.513Z,4.40
2022-09-24T11:44:52.143Z,4.78
2022-09-24T11:47:59.033Z,5.35
2022-09-24T11:50:48.054Z,6.03
2022-09-24T11:53:25.883Z,7.22
2022-09-24T11:56:20.482Z,6.38
2022-09-24T11:58:59.140Z,4.82
2022-09-24T12:01:32.581Z,4.93
2022-09-24T12:04:06.076Z,6.35
2022-09-24T12:06:42.134Z,4.75
2022-09-24T12:09:31.864Z,6.90
2022-09-24T12:12:07.149Z,4.60
2022-09-24T12:14:56.834Z,5.40
2022-09-24T12:17:29.121Z,5.32
2022-09-24T12:20:01.354Z,4.63
2022-09-24T12:22:29.802Z,4.57
2022-09-24T12:25:00.038Z,4.85
2022-09-24T12:27:36.636Z,5.72
2022-09-24T12:30:53.821Z,5.70
2022-09-24T12:33:35.240Z,5.03
2022-09-24T12:36:09.027Z,6.53
2022-09-24T12:38:43.481Z,4.45
2022-09-24T12:41:15.888Z,6.20
2022-09-24T12:44:12.026Z,5.47
2022-09-24T12:46:45.600Z,4.68
2022-09-24T12:49:26.243Z,6.38
2022-09-24T12:51:54.459Z,4.28
2022-09-24T12:54:29.219Z,5.78
2022-09-24T12:57:25.701Z,4.32
2022-09-24T12:59:58.240Z,4.20
2022-09-24T13:02:33.061Z,4.78
2022-09-24T13:05:02.422Z,5.47
2022-09-24T13:07:39.220Z,3.75
2022-09-24T13:10:22.448Z,5.80
2022-09-24T13:12:49.741Z,5.85
2022-09-24T13:15:38.492Z,4.03
2022-09-24T13:18:25.268Z,4.63
2022-09-24T13:21:00.973Z,3.95
2022-09-24T13:23:29.274Z,6.18
2022-09-24T13:26:04.759Z,3.65
2022-09-24T13:28:58.979Z,8.15
2022-09-24T13:31:28.509Z,3.90
2022-09-24T13:34:10.124Z,4.88
2022-09-24T13:36:48.046Z,3.97
2022-09-24T13:39:37.029Z,4.13
2022-09-24T13:42:19.751Z,3.67
2022-09-24T13:44:54.228Z,4.90
2022-09-24T13:47:33.038Z,2.85
2022-09-24T13:50:16.426Z,3.47
2022-09-24T13:52:47.958Z,4.88
2022-09-24T13:55:22.754Z,5.90
2022-09-24T13:57:49.493Z,5.13
2022-09-24T14:00:19.780Z,4.07
2022-09-24T14:03:00.927Z,5.30
2022-09-24T14:05:29.230Z,3.65
2022-09-24T14:08:05.771Z,3.00
2022-09-24T14:10:33.243Z,3.40
2022-09-24T14:13:23.184Z,5.32
2022-09-24T14:15:56.886Z,3.90
2022-09-24T14:18:25.588Z,6.00
2022-09-24T14:20:59.268Z,3.17
2022-09-24T14:23:33.306Z,5.15
2022-09-24T14:26:00.931Z,3.30
2022-09-24T14:28:32.603Z,4.80
2022-09-24T14:31:01.214Z,4.18
2022-09-24T14:33:31.705Z,5.53
2022-09-24T14:36:00.608Z,5.10
2022-09-24T14:38:41.506Z,3.95
2022-09-24T14:41:24.775Z,6.63
2022-09-24T14:43:54.661Z,3.47
2022-09-24T14:46:23.264Z,5.18
2022-09-24T14:48:51.065Z,3.67
2022-09-24T14:51:28.362Z,3.85
2022-09-24T14:54:00.440Z,5.90
2022-09-24T14:56:32.307Z,3.63
2022-09-24T14:58:59.811Z,4.47
2022-09-24T15:01:33.456Z,4.28
2022-09-24T15:04:03.989Z,3.13
2022-09-24T15:06:33.626Z,4.57
2022-09-24T15:09:15.564Z,4.13
2022-09-24T15:11:43.851Z,7.97
2022-09-24T15:14:19.976Z,7.38
2022-09-24T15:16:47.566Z,4.32
2022-09-24T15:19:22.708Z,4.20
2022-09-24T15:21:52.576Z,4.28
2022-09-24T15:24:21.111Z,4.75
2022-09-24T15:26:59.719Z,3.42
2022-09-24T15:29:26.391Z,4.32
2022-09-24T15:31:54.801Z,3.75
2022-09-24T15:34:21.290Z,3.45
2022-09-24T15:36:50.030Z,3.22
2022-09-24T15:39:18.450Z,4.93
2022-09-24T15:41:44.844Z,4.35
2022-09-24T15:44:28.361Z,3.63
2022-09-24T15:46:58.059Z,5.63
2022-09-24T15:49:25.485Z,3.63
2022-09-24T15:52:28.747Z,3.72
2022-09-24T15:54:57.717Z,3.40
2022-09-24T15:57:26.484Z,4.95
2022-09-24T15:59:53.402Z,6.18
2022-09-24T16:02:32.410Z,3.10
2022-09-24T16:05:03.302Z,4.72
2022-09-24T16:07:30.443Z,4.22
2022-09-24T16:09:56.793Z,4.20
2022-09-24T16:12:27.957Z,4.25
2022-09-24T16:14:58.796Z,3.13
2022-09-24T16:17:25.715Z,3.28
2022-09-24T16:19:52.147Z,3.38
2022-09-24T16:22:20.600Z,4.13
2022-09-24T16:24:47.673Z,3.17
2022-09-24T16:27:14.127Z,4.05
2022-09-24T16:29:40.519Z,4.20
2022-09-24T16:32:06.937Z,3.55
2022-09-24T16:34:34.374Z,4.57
2022-09-24T16:37:00.924Z,5.32
2022-09-24T16:39:27.298Z,3.50
2022-09-24T16:41:54.665Z,4.63
2022-09-24T16:44:21.474Z,4.22
2022-09-24T16:46:47.935Z,3.10
2022-09-24T16:49:14.390Z,4.55
2022-09-24T16:51:40.779Z,4.50
2022-09-24T16:54:07.183Z,3.72
2022-09-24T16:56:33.682Z,5.65
2022-09-24T16:59:00.206Z,4.53
2022-09-24T17:01:26.673Z,5.38
2022-09-24T17:03:55.210Z,3.72
2022-09-24T17:06:26.791Z,6.00
2022-09-24T17:09:12.392Z,5.07
2022-09-24T17:11:40.145Z,7.13
2022-09-24T17:14:07.712Z,5.43
2022-09-24T17:16:34.804Z,4.20
2022-09-24T17:19:01.503Z,4.68
2022-09-24T17:21:28.180Z,6.15
2022-09-24T17:23:54.700Z,6.15
2022-09-24T17:26:22.617Z,5.53
2022-09-24T17:28:52.791Z,4.43
2022-09-24T17:31:22.070Z,5.32
2022-09-24T17:33:55.739Z,4.68
2022-09-24T17:36:22.970Z,5.35
2022-09-24T17:38:49.446Z,5.68
2022-09-24T17:41:15.917Z,5.53
2022-09-24T17:43:42.398Z,5.55
2022-09-24T17:46:15.300Z,5.55
2022-09-24T17:48:44.495Z,11.93
2022-09-24T17:51:19.811Z,17.27
2022-09-24T17:53:46.872Z,8.20
2022-09-24T17:56:14.383Z,6.28
2022-09-24T17:58:44.272Z,6.63
2022-09-24T18:01:12.917Z,7.78
2022-09-24T18:03:39.539Z,5.88
2022-09-24T18:06:08.551Z,8.15
2022-09-24T18:08:39.687Z,7.55
2022-09-24T18:11:08.504Z,7.70
2022-09-24T18:13:35.559Z,6.82
2022-09-24T18:16:14.184Z,6.60
2022-09-24T18:18:41.430Z,5.95
2022-09-24T18:21:10.524Z,5.97
2022-09-24T18:23:37.854Z,7.25
2022-09-24T18:26:10.460Z,6.55
2022-09-24T18:28:41.432Z,5.80
2022-09-24T18:31:10.301Z,5.40
2022-09-24T18:33:39.193Z,7.30
2022-09-24T18:36:08.710Z,5.83
2022-09-24T18:38:35.554Z,6.35
2022-09-24T18:41:10.445Z,7.78
2022-09-24T18:43:37.636Z,6.13
2022-09-24T18:46:11.223Z,6.13
2022-09-24T18:48:39.219Z,6.30
2022-09-24T18:51:06.541Z,7.15
2022-09-24T18:53:35.172Z,8.65
2022-09-24T18:56:08.740Z,10.15
2022-09-24T18:58:35.194Z,6.88
2022-09-24T19:01:03.838Z,8.88
2022-09-24T19:03:31.130Z,7.40
2022-09-24T19:06:04.945Z,8.60
2022-09-24T19:08:32.187Z,7.57
2022-09-24T19:11:09.182Z,7.78
2022-09-24T19:13:38.470Z,7.95
2022-09-24T19:16:13.955Z,6.72
2022-09-24T19:18:40.963Z,7.35
2022-09-24T19:21:09.668Z,10.48
2022-09-24T19:23:42.345Z,10.23
2022-09-24T19:26:09.990Z,16.47
2022-09-24T19:28:39.035Z,16.63
2022-09-24T19:31:06.191Z,25.08
2022-09-24T19:33:32.668Z,32.47
2022-09-24T19:36:02.121Z,13.63
2022-09-24T19:38:31.849Z,15.07
2022-09-24T19:41:02.801Z,9.63
2022-09-24T19:43:32.820Z,8.30
2022-09-24T19:46:02.473Z,7.37
2022-09-24T19:48:31.310Z,8.10
2022-09-24T19:51:00.854Z,7.25
2022-09-24T19:53:27.771Z,7.47
2022-09-24T19:55:54.233Z,7.83
2022-09-24T19:58:20.667Z,8.70
2022-09-24T20:00:47.093Z,7.07
2022-09-24T20:03:13.582Z,7.50
2022-09-24T20:05:43.185Z,9.07
2022-09-24T20:08:12.489Z,7.37
2022-09-24T20:10:40.212Z,6.57
2022-09-24T20:13:10.517Z,12.33
2022-09-24T20:15:38.619Z,7.30
2022-09-24T20:18:06.534Z,6.50
2022-09-24T20:20:33.245Z,8.63
2022-09-24T20:23:00.131Z,6.27
2022-09-24T20:25:45.934Z,7.03
2022-09-24T20:28:17.318Z,9.17
2022-09-24T20:30:45.216Z,9.10
2022-09-24T20:33:12.897Z,9.23
2022-09-24T20:35:40.991Z,9.33
2022-09-24T20:38:08.082Z,8.43
2022-09-24T20:40:36.538Z,10.57
2022-09-24T20:43:03.738Z,10.87
2022-09-24T20:45:31.250Z,9.70
2022-09-24T20:47:57.704Z,11.73
2022-09-24T20:50:24.189Z,9.23
2022-09-24T20:52:50.666Z,8.03
2022-09-24T20:55:17.300Z,8.67
2022-09-24T20:57:44.242Z,9.63
2022-09-24T21:00:14.122Z,8.37
2022-09-24T21:02:41.920Z,9.63
2022-09-24T21:05:10.322Z,8.10
2022-09-24T21:07:42.764Z,9.47
2022-09-24T21:10:11.172Z,10.30
2022-09-24T21:12:38.541Z,8.00
2022-09-24T21:15:06.926Z,8.00
2022-09-24T21:17:33.997Z,12.57
2022-09-24T21:20:00.709Z,7.23
2022-09-24T21:22:27.199Z,8.17
2022-09-24T21:24:53.647Z,10.57
2022-09-24T21:27:20.321Z,9.27
2022-09-24T21:29:48.163Z,8.10
2022-09-24T21:32:16.690Z,8.37
2022-09-24T21:34:44.102Z,7.63
2022-09-24T21:37:16.923Z,7.47
2022-09-24T21:39:44.767Z,7.20
2022-09-24T21:42:12.037Z,9.03
2022-09-24T21:44:38.813Z,7.33
2022-09-24T21:47:05.330Z,9.60
2022-09-24T21:49:33.510Z,8.50
2022-09-24T21:51:59.970Z,7.97
2022-09-24T21:54:26.447Z,8.80
2022-09-24T21:56:54.155Z,6.67
2022-09-24T21:59:39.044Z,9.73
2022-09-24T22:02:05.522Z,7.40
2022-09-24T22:04:33.081Z,6.03
2022-09-24T22:07:00.069Z,8.47
2022-09-24T22:09:26.775Z,7.17
2022-09-24T22:11:55.707Z,9.67
2022-09-24T22:14:22.945Z,5.77
2022-09-24T22:16:49.481Z,6.80
2022-09-24T22:19:15.914Z,6.33
2022-09-24T22:21:42.343Z,7.47
2022-09-24T22:24:09.262Z,7.07
2022-09-24T22:26:35.800Z,10.30
2022-09-24T22:29:03.811Z,10.77
2022-09-24T22:31:30.849Z,13.77
2022-09-24T22:34:15.580Z,11.97
2022-09-24T22:36:42.089Z,14.23
2022-09-24T22:39:08.625Z,12.00
2022-09-24T22:41:38.933Z,11.27
2022-09-24T22:44:07.474Z,11.73
2022-09-24T22:46:36.012Z,11.70
2022-09-24T22:49:04.864Z,12.05
2022-09-24T22:51:31.644Z,8.57
2022-09-24T22:54:00.071Z,10.30
2022-09-24T22:56:26.995Z,10.43
2022-09-24T22:58:56.156Z,8.23
2022-09-24T23:01:28.018Z,8.93
2022-09-24T23:03:55.918Z,9.40
2022-09-24T23:06:23.259Z,12.57
2022-09-24T23:08:51.193Z,8.53
2022-09-24T23:11:29.144Z,8.50
2022-09-24T23:13:58.265Z,10.20
2022-09-24T23:16:27.319Z,8.93
2022-09-24T23:18:56.343Z,6.70
2022-09-24T23:21:25.826Z,7.17
2022-09-24T23:23:57.109Z,5.77
2022-09-24T23:26:25.737Z,5.70
2022-09-24T23:28:54.052Z,6.63
2022-09-24T23:31:25.292Z,7.63
2022-09-24T23:33:53.401Z,7.07
2022-09-24T23:36:19.839Z,6.30
2022-09-24T23:38:46.387Z,11.17
2022-09-24T23:41:13.436Z,6.93
2022-09-24T23:43:40.948Z,8.47
2022-09-24T23:46:08.409Z,7.10
2022-09-24T23:48:35.145Z,6.10
2022-09-24T23:51:01.574Z,5.63
2022-09-24T23:53:27.994Z,5.13
2022-09-24T23:55:55.281Z,5.23
2022-09-24T23:58:23.729Z,6.10
